sensor_id;sensor_type;location;lat;lon;timestamp;P1;durP1;ratioP1;P2;durP2;ratioP2
4565;SDS011;2295;51.050;14.608;2022-08-04T00:01:35;4.40;;;3.83;;
4565;SDS011;2295;51.050;14.608;2022-08-04T00:04:07;4.30;;;4.00;;
4565;SDS011;2295;51.050;14.608;2022-08-04T00:06:44;5.80;;;3.90;;
4565;SDS011;2295;51.050;14.608;2022-08-04T00:09:16;5.53;;;3.80;;
4565;SDS011;2295;51.050;14.608;2022-08-04T00:11:47;5.13;;;3.90;;
4565;SDS011;2295;51.050;14.608;2022-08-04T00:14:16;5.50;;;3.67;;
4565;SDS011;2295;51.050;14.608;2022-08-04T00:16:46;4.20;;;3.90;;
4565;SDS011;2295;51.050;14.608;2022-08-04T00:19:19;6.50;;;3.80;;
4565;SDS011;2295;51.050;14.608;2022-08-04T00:21:51;5.57;;;3.77;;
4565;SDS011;2295;51.050;14.608;2022-08-04T00:24:22;4.70;;;4.20;;
4565;SDS011;2295;51.050;14.608;2022-08-04T00:26:53;4.83;;;4.43;;
4565;SDS011;2295;51.050;14.608;2022-08-04T00:29:22;9.23;;;3.80;;
4565;SDS011;2295;51.050;14.608;2022-08-04T00:31:50;4.23;;;3.93;;
4565;SDS011;2295;51.050;14.608;2022-08-04T00:34:23;4.23;;;3.27;;
4565;SDS011;2295;51.050;14.608;2022-08-04T00:36:52;4.20;;;3.90;;
4565;SDS011;2295;51.050;14.608;2022-08-04T00:39:21;5.07;;;4.13;;
4565;SDS011;2295;51.050;14.608;2022-08-04T00:42:00;6.90;;;3.70;;
4565;SDS011;2295;51.050;14.608;2022-08-04T00:44:33;3.93;;;3.73;;
4565;SDS011;2295;51.050;14.608;2022-08-04T00:47:09;4.83;;;3.73;;
4565;SDS011;2295;51.050;14.608;2022-08-04T00:49:53;8.40;;;3.80;;
4565;SDS011;2295;51.050;14.608;2022-08-04T00:52:28;4.63;;;4.23;;
4565;SDS011;2295;51.050;14.608;2022-08-04T00:55:04;4.57;;;4.17;;
4565;SDS011;2295;51.050;14.608;2022-08-04T00:57:49;3.73;;;3.43;;
4565;SDS011;2295;51.050;14.608;2022-08-04T01:00:18;4.20;;;3.80;;
4565;SDS011;2295;51.050;14.608;2022-08-04T01:02:50;4.60;;;4.20;;
4565;SDS011;2295;51.050;14.608;2022-08-04T01:05:26;4.90;;;3.83;;
4565;SDS011;2295;51.050;14.608;2022-08-04T01:10:57;5.70;;;3.80;;
4565;SDS011;2295;51.050;14.608;2022-08-04T01:13:36;6.40;;;4.27;;
4565;SDS011;2295;51.050;14.608;2022-08-04T01:16:08;8.03;;;4.07;;
4565;SDS011;2295;51.050;14.608;2022-08-04T01:18:41;4.17;;;3.87;;
4565;SDS011;2295;51.050;14.608;2022-08-04T01:21:20;5.00;;;3.70;;
4565;SDS011;2295;51.050;14.608;2022-08-04T01:24:06;3.73;;;3.43;;
4565;SDS011;2295;51.050;14.608;2022-08-04T01:29:25;3.90;;;3.60;;
4565;SDS011;2295;51.050;14.608;2022-08-04T01:32:14;3.70;;;3.13;;
4565;SDS011;2295;51.050;14.608;2022-08-04T01:34:46;4.60;;;3.10;;
4565;SDS011;2295;51.050;14.608;2022-08-04T01:37:20;3.93;;;3.27;;
4565;SDS011;2295;51.050;14.608;2022-08-04T01:39:58;5.23;;;3.47;;
4565;SDS011;2295;51.050;14.608;2022-08-04T01:42:28;3.43;;;3.13;;
4565;SDS011;2295;51.050;14.608;2022-08-04T01:45:01;8.90;;;3.30;;
4565;SDS011;2295;51.050;14.608;2022-08-04T01:47:30;3.20;;;2.90;;
4565;SDS011;2295;51.050;14.608;2022-08-04T01:50:03;4.07;;;3.37;;
4565;SDS011;2295;51.050;14.608;2022-08-04T01:52:33;4.50;;;3.10;;
4565;SDS011;2295;51.050;14.608;2022-08-04T01:55:03;4.07;;;2.70;;
4565;SDS011;2295;51.050;14.608;2022-08-04T01:57:32;9.00;;;2.70;;
4565;SDS011;2295;51.050;14.608;2022-08-04T02:00:06;4.70;;;2.60;;
4565;SDS011;2295;51.050;14.608;2022-08-04T02:02:35;3.27;;;3.03;;
4565;SDS011;2295;51.050;14.608;2022-08-04T02:05:04;2.80;;;2.60;;
4565;SDS011;2295;51.050;14.608;2022-08-04T02:07:39;2.80;;;2.70;;
4565;SDS011;2295;51.050;14.608;2022-08-04T02:10:15;2.90;;;2.70;;
4565;SDS011;2295;51.050;14.608;2022-08-04T02:12:51;5.63;;;2.70;;
4565;SDS011;2295;51.050;14.608;2022-08-04T02:15:25;3.40;;;3.03;;
4565;SDS011;2295;51.050;14.608;2022-08-04T02:17:58;3.03;;;2.83;;
4565;SDS011;2295;51.050;14.608;2022-08-04T02:20:32;3.63;;;3.37;;
4565;SDS011;2295;51.050;14.608;2022-08-04T02:23:03;3.23;;;2.63;;
4565;SDS011;2295;51.050;14.608;2022-08-04T02:25:33;5.07;;;3.17;;
4565;SDS011;2295;51.050;14.608;2022-08-04T02:28:09;3.23;;;2.93;;
4565;SDS011;2295;51.050;14.608;2022-08-04T02:30:42;3.10;;;2.90;;
4565;SDS011;2295;51.050;14.608;2022-08-04T02:33:14;3.83;;;3.00;;
4565;SDS011;2295;51.050;14.608;2022-08-04T02:35:44;4.80;;;2.70;;
4565;SDS011;2295;51.050;14.608;2022-08-04T02:38:17;2.50;;;2.40;;
4565;SDS011;2295;51.050;14.608;2022-08-04T02:40:51;3.10;;;2.63;;
4565;SDS011;2295;51.050;14.608;2022-08-04T02:43:25;3.43;;;2.80;;
4565;SDS011;2295;51.050;14.608;2022-08-04T02:46:17;5.40;;;3.07;;
4565;SDS011;2295;51.050;14.608;2022-08-04T02:48:47;2.90;;;2.80;;
4565;SDS011;2295;51.050;14.608;2022-08-04T02:51:22;5.13;;;3.13;;
4565;SDS011;2295;51.050;14.608;2022-08-04T02:53:53;3.03;;;2.83;;
4565;SDS011;2295;51.050;14.608;2022-08-04T02:56:22;5.40;;;2.97;;
4565;SDS011;2295;51.050;14.608;2022-08-04T02:58:52;3.37;;;3.17;;
4565;SDS011;2295;51.050;14.608;2022-08-04T03:01:22;3.30;;;3.03;;
4565;SDS011;2295;51.050;14.608;2022-08-04T03:03:55;4.10;;;3.50;;
4565;SDS011;2295;51.050;14.608;2022-08-04T03:17:46;3.20;;;3.00;;
4565;SDS011;2295;51.050;14.608;2022-08-04T03:20:35;3.63;;;3.33;;
4565;SDS011;2295;51.050;14.608;2022-08-04T03:29:04;3.67;;;3.30;;
4565;SDS011;2295;51.050;14.608;2022-08-04T03:31:42;3.87;;;3.60;;
4565;SDS011;2295;51.050;14.608;2022-08-04T03:34:21;6.60;;;3.50;;
4565;SDS011;2295;51.050;14.608;2022-08-04T03:37:07;4.70;;;3.10;;
4565;SDS011;2295;51.050;14.608;2022-08-04T03:42:47;7.13;;;3.67;;
4565;SDS011;2295;51.050;14.608;2022-08-04T03:45:34;8.07;;;3.60;;
4565;SDS011;2295;51.050;14.608;2022-08-04T03:48:08;10.77;;;3.70;;
4565;SDS011;2295;51.050;14.608;2022-08-04T03:50:44;3.63;;;3.33;;
4565;SDS011;2295;51.050;14.608;2022-08-04T03:54:05;4.63;;;3.20;;
4565;SDS011;2295;51.050;14.608;2022-08-04T03:56:47;3.53;;;3.20;;
4565;SDS011;2295;51.050;14.608;2022-08-04T04:02:13;6.97;;;3.23;;
4565;SDS011;2295;51.050;14.608;2022-08-04T04:13:57;7.07;;;3.20;;
4565;SDS011;2295;51.050;14.608;2022-08-04T04:16:36;6.53;;;2.83;;
4565;SDS011;2295;51.050;14.608;2022-08-04T04:19:15;9.73;;;3.67;;
4565;SDS011;2295;51.050;14.608;2022-08-04T04:21:53;8.83;;;3.20;;
4565;SDS011;2295;51.050;14.608;2022-08-04T04:24:32;12.73;;;3.70;;
4565;SDS011;2295;51.050;14.608;2022-08-04T04:27:04;5.97;;;3.70;;
4565;SDS011;2295;51.050;14.608;2022-08-04T04:32:51;7.43;;;3.57;;
4565;SDS011;2295;51.050;14.608;2022-08-04T04:35:26;12.57;;;3.50;;
4565;SDS011;2295;51.050;14.608;2022-08-04T04:38:06;8.37;;;3.30;;
4565;SDS011;2295;51.050;14.608;2022-08-04T04:40:43;6.43;;;3.63;;
4565;SDS011;2295;51.050;14.608;2022-08-04T04:46:20;7.60;;;3.10;;
4565;SDS011;2295;51.050;14.608;2022-08-04T04:48:53;3.93;;;3.33;;
4565;SDS011;2295;51.050;14.608;2022-08-04T04:51:28;7.00;;;3.20;;
4565;SDS011;2295;51.050;14.608;2022-08-04T04:54:03;8.00;;;3.60;;
4565;SDS011;2295;51.050;14.608;2022-08-04T04:56:34;4.83;;;3.20;;
4565;SDS011;2295;51.050;14.608;2022-08-04T04:59:04;6.80;;;3.40;;
4565;SDS011;2295;51.050;14.608;2022-08-04T05:01:38;7.23;;;2.90;;
4565;SDS011;2295;51.050;14.608;2022-08-04T05:04:14;8.13;;;2.93;;
4565;SDS011;2295;51.050;14.608;2022-08-04T05:06:52;7.40;;;2.90;;
4565;SDS011;2295;51.050;14.608;2022-08-04T05:09:25;11.83;;;2.60;;
4565;SDS011;2295;51.050;14.608;2022-08-04T05:12:04;6.70;;;2.83;;
4565;SDS011;2295;51.050;14.608;2022-08-04T05:14:58;3.47;;;2.33;;
4565;SDS011;2295;51.050;14.608;2022-08-04T05:17:29;5.83;;;2.70;;
4565;SDS011;2295;51.050;14.608;2022-08-04T05:20:06;12.97;;;2.63;;
4565;SDS011;2295;51.050;14.608;2022-08-04T05:22:36;2.90;;;2.37;;
4565;SDS011;2295;51.050;14.608;2022-08-04T05:25:07;3.60;;;2.60;;
4565;SDS011;2295;51.050;14.608;2022-08-04T05:27:37;3.80;;;2.90;;
4565;SDS011;2295;51.050;14.608;2022-08-04T05:30:07;8.10;;;2.63;;
4565;SDS011;2295;51.050;14.608;2022-08-04T05:32:40;3.23;;;2.50;;
4565;SDS011;2295;51.050;14.608;2022-08-04T05:35:13;5.30;;;2.03;;
4565;SDS011;2295;51.050;14.608;2022-08-04T05:38:02;6.20;;;2.43;;
4565;SDS011;2295;51.050;14.608;2022-08-04T05:40:31;13.40;;;3.13;;
4565;SDS011;2295;51.050;14.608;2022-08-04T05:43:00;3.80;;;2.10;;
4565;SDS011;2295;51.050;14.608;2022-08-04T05:45:28;3.73;;;2.00;;
4565;SDS011;2295;51.050;14.608;2022-08-04T05:48:05;2.57;;;2.00;;
4565;SDS011;2295;51.050;14.608;2022-08-04T05:50:36;2.30;;;2.20;;
4565;SDS011;2295;51.050;14.608;2022-08-04T05:53:04;4.07;;;1.93;;
4565;SDS011;2295;51.050;14.608;2022-08-04T05:55:33;4.70;;;2.60;;
4565;SDS011;2295;51.050;14.608;2022-08-04T05:58:22;3.63;;;2.10;;
4565;SDS011;2295;51.050;14.608;2022-08-04T06:00:50;5.90;;;2.33;;
4565;SDS011;2295;51.050;14.608;2022-08-04T06:03:20;3.20;;;1.77;;
4565;SDS011;2295;51.050;14.608;2022-08-04T06:05:51;7.93;;;2.20;;
4565;SDS011;2295;51.050;14.608;2022-08-04T06:08:20;6.17;;;2.00;;
4565;SDS011;2295;51.050;14.608;2022-08-04T06:10:49;3.03;;;1.90;;
4565;SDS011;2295;51.050;14.608;2022-08-04T06:13:19;6.67;;;1.77;;
4565;SDS011;2295;51.050;14.608;2022-08-04T06:16:10;2.10;;;1.90;;
4565;SDS011;2295;51.050;14.608;2022-08-04T06:18:54;3.00;;;1.70;;
4565;SDS011;2295;51.050;14.608;2022-08-04T06:21:46;6.30;;;2.00;;
4565;SDS011;2295;51.050;14.608;2022-08-04T06:24:16;3.73;;;1.70;;
4565;SDS011;2295;51.050;14.608;2022-08-04T06:26:46;4.03;;;1.70;;
4565;SDS011;2295;51.050;14.608;2022-08-04T06:29:16;2.13;;;1.80;;
4565;SDS011;2295;51.050;14.608;2022-08-04T06:31:50;2.50;;;1.90;;
4565;SDS011;2295;51.050;14.608;2022-08-04T06:34:44;6.47;;;1.73;;
4565;SDS011;2295;51.050;14.608;2022-08-04T06:37:15;8.40;;;1.60;;
4565;SDS011;2295;51.050;14.608;2022-08-04T06:40:04;3.90;;;2.00;;
4565;SDS011;2295;51.050;14.608;2022-08-04T06:42:55;5.60;;;1.50;;
4565;SDS011;2295;51.050;14.608;2022-08-04T06:45:23;5.10;;;1.73;;
4565;SDS011;2295;51.050;14.608;2022-08-04T06:47:52;7.03;;;2.17;;
4565;SDS011;2295;51.050;14.608;2022-08-04T06:50:21;8.63;;;2.40;;
4565;SDS011;2295;51.050;14.608;2022-08-04T06:53:12;3.57;;;1.90;;
4565;SDS011;2295;51.050;14.608;2022-08-04T06:55:41;2.70;;;2.00;;
4565;SDS011;2295;51.050;14.608;2022-08-04T06:58:10;6.87;;;1.90;;
4565;SDS011;2295;51.050;14.608;2022-08-04T07:00:40;5.57;;;1.63;;
4565;SDS011;2295;51.050;14.608;2022-08-04T07:03:10;4.53;;;2.33;;
4565;SDS011;2295;51.050;14.608;2022-08-04T07:05:39;3.23;;;1.90;;
4565;SDS011;2295;51.050;14.608;2022-08-04T07:08:08;4.60;;;1.80;;
4565;SDS011;2295;51.050;14.608;2022-08-04T07:10:38;5.53;;;1.63;;
4565;SDS011;2295;51.050;14.608;2022-08-04T07:13:07;1.70;;;1.60;;
4565;SDS011;2295;51.050;14.608;2022-08-04T07:15:38;20.57;;;2.90;;
4565;SDS011;2295;51.050;14.608;2022-08-04T07:18:08;6.40;;;2.00;;
4565;SDS011;2295;51.050;14.608;2022-08-04T07:20:39;1.90;;;1.60;;
4565;SDS011;2295;51.050;14.608;2022-08-04T07:23:08;3.70;;;1.70;;
4565;SDS011;2295;51.050;14.608;2022-08-04T07:25:40;2.97;;;1.80;;
4565;SDS011;2295;51.050;14.608;2022-08-04T07:28:29;5.90;;;1.60;;
4565;SDS011;2295;51.050;14.608;2022-08-04T07:30:58;12.67;;;2.20;;
4565;SDS011;2295;51.050;14.608;2022-08-04T07:33:29;5.17;;;1.50;;
4565;SDS011;2295;51.050;14.608;2022-08-04T07:35:57;1.73;;;1.53;;
4565;SDS011;2295;51.050;14.608;2022-08-04T07:38:36;5.80;;;1.73;;
4565;SDS011;2295;51.050;14.608;2022-08-04T07:41:20;3.67;;;1.30;;
4565;SDS011;2295;51.050;14.608;2022-08-04T07:44:05;10.63;;;1.83;;
4565;SDS011;2295;51.050;14.608;2022-08-04T07:46:34;1.73;;;1.33;;
4565;SDS011;2295;51.050;14.608;2022-08-04T07:49:03;2.70;;;1.53;;
4565;SDS011;2295;51.050;14.608;2022-08-04T07:51:32;8.43;;;1.60;;
4565;SDS011;2295;51.050;14.608;2022-08-04T07:54:01;3.20;;;1.73;;
4565;SDS011;2295;51.050;14.608;2022-08-04T07:56:32;3.60;;;1.50;;
4565;SDS011;2295;51.050;14.608;2022-08-04T07:59:02;2.07;;;1.60;;
4565;SDS011;2295;51.050;14.608;2022-08-04T08:01:32;1.40;;;1.33;;
4565;SDS011;2295;51.050;14.608;2022-08-04T08:04:02;3.90;;;1.70;;
4565;SDS011;2295;51.050;14.608;2022-08-04T08:06:33;1.50;;;1.30;;
4565;SDS011;2295;51.050;14.608;2022-08-04T08:09:10;1.83;;;1.40;;
4565;SDS011;2295;51.050;14.608;2022-08-04T08:11:41;1.30;;;1.30;;
4565;SDS011;2295;51.050;14.608;2022-08-04T08:14:30;1.93;;;1.30;;
4565;SDS011;2295;51.050;14.608;2022-08-04T08:17:00;3.03;;;1.40;;
4565;SDS011;2295;51.050;14.608;2022-08-04T08:19:29;5.20;;;1.20;;
4565;SDS011;2295;51.050;14.608;2022-08-04T08:21:58;4.20;;;1.30;;
4565;SDS011;2295;51.050;14.608;2022-08-04T08:24:27;3.47;;;1.30;;
4565;SDS011;2295;51.050;14.608;2022-08-04T08:26:58;1.53;;;1.33;;
4565;SDS011;2295;51.050;14.608;2022-08-04T08:29:26;2.07;;;1.20;;
4565;SDS011;2295;51.050;14.608;2022-08-04T08:31:56;5.77;;;1.20;;
4565;SDS011;2295;51.050;14.608;2022-08-04T08:34:33;4.90;;;1.23;;
4565;SDS011;2295;51.050;14.608;2022-08-04T08:37:03;7.47;;;1.30;;
4565;SDS011;2295;51.050;14.608;2022-08-04T08:39:33;4.43;;;1.13;;
4565;SDS011;2295;51.050;14.608;2022-08-04T08:42:13;1.50;;;1.30;;
4565;SDS011;2295;51.050;14.608;2022-08-04T08:47:42;1.60;;;1.50;;
4565;SDS011;2295;51.050;14.608;2022-08-04T08:50:37;2.03;;;1.30;;
4565;SDS011;2295;51.050;14.608;2022-08-04T08:53:19;8.30;;;1.40;;
4565;SDS011;2295;51.050;14.608;2022-08-04T08:55:54;4.20;;;1.40;;
4565;SDS011;2295;51.050;14.608;2022-08-04T08:58:37;5.60;;;1.30;;
4565;SDS011;2295;51.050;14.608;2022-08-04T09:01:11;6.33;;;1.40;;
4565;SDS011;2295;51.050;14.608;2022-08-04T09:03:54;2.80;;;1.40;;
4565;SDS011;2295;51.050;14.608;2022-08-04T09:06:30;5.97;;;1.20;;
4565;SDS011;2295;51.050;14.608;2022-08-04T09:11:55;3.17;;;1.40;;
4565;SDS011;2295;51.050;14.608;2022-08-04T09:14:27;5.13;;;1.40;;
4565;SDS011;2295;51.050;14.608;2022-08-04T09:16:59;1.00;;;1.00;;
4565;SDS011;2295;51.050;14.608;2022-08-04T09:19:31;3.17;;;1.23;;
4565;SDS011;2295;51.050;14.608;2022-08-04T09:22:15;2.10;;;1.30;;
4565;SDS011;2295;51.050;14.608;2022-08-04T09:24:47;3.90;;;1.10;;
4565;SDS011;2295;51.050;14.608;2022-08-04T09:27:18;2.13;;;1.43;;
4565;SDS011;2295;51.050;14.608;2022-08-04T09:29:51;1.57;;;1.30;;
4565;SDS011;2295;51.050;14.608;2022-08-04T09:32:22;2.93;;;1.40;;
4565;SDS011;2295;51.050;14.608;2022-08-04T09:34:56;3.30;;;1.37;;
4565;SDS011;2295;51.050;14.608;2022-08-04T09:37:35;8.13;;;1.37;;
4565;SDS011;2295;51.050;14.608;2022-08-04T09:40:14;2.60;;;1.20;;
4565;SDS011;2295;51.050;14.608;2022-08-04T09:43:02;1.33;;;1.23;;
4565;SDS011;2295;51.050;14.608;2022-08-04T09:45:35;1.70;;;1.13;;
4565;SDS011;2295;51.050;14.608;2022-08-04T09:48:10;1.27;;;1.10;;
4565;SDS011;2295;51.050;14.608;2022-08-04T09:50:41;1.63;;;1.50;;
4565;SDS011;2295;51.050;14.608;2022-08-04T09:53:21;1.60;;;1.10;;
4565;SDS011;2295;51.050;14.608;2022-08-04T09:55:57;2.50;;;1.20;;
4565;SDS011;2295;51.050;14.608;2022-08-04T09:58:37;2.07;;;1.40;;
4565;SDS011;2295;51.050;14.608;2022-08-04T10:01:10;4.30;;;1.17;;
4565;SDS011;2295;51.050;14.608;2022-08-04T10:03:47;3.30;;;1.37;;
4565;SDS011;2295;51.050;14.608;2022-08-04T10:09:16;2.60;;;1.37;;
4565;SDS011;2295;51.050;14.608;2022-08-04T10:11:52;2.00;;;1.00;;
4565;SDS011;2295;51.050;14.608;2022-08-04T10:14:36;0.80;;;0.80;;
4565;SDS011;2295;51.050;14.608;2022-08-04T10:17:20;1.10;;;1.00;;
4565;SDS011;2295;51.050;14.608;2022-08-04T10:19:52;1.87;;;1.10;;
4565;SDS011;2295;51.050;14.608;2022-08-04T10:22:24;2.53;;;1.20;;
4565;SDS011;2295;51.050;14.608;2022-08-04T10:25:09;2.00;;;1.10;;
4565;SDS011;2295;51.050;14.608;2022-08-04T10:28:04;4.87;;;1.20;;
4565;SDS011;2295;51.050;14.608;2022-08-04T10:30:34;4.17;;;1.17;;
4565;SDS011;2295;51.050;14.608;2022-08-04T10:33:07;2.07;;;1.17;;
4565;SDS011;2295;51.050;14.608;2022-08-04T10:35:37;1.10;;;1.00;;
4565;SDS011;2295;51.050;14.608;2022-08-04T10:38:14;1.90;;;1.20;;
4565;SDS011;2295;51.050;14.608;2022-08-04T10:40:54;1.00;;;1.00;;
4565;SDS011;2295;51.050;14.608;2022-08-04T10:43:25;2.43;;;1.07;;
4565;SDS011;2295;51.050;14.608;2022-08-04T10:45:58;2.43;;;1.10;;
4565;SDS011;2295;51.050;14.608;2022-08-04T10:48:33;2.50;;;1.10;;
4565;SDS011;2295;51.050;14.608;2022-08-04T10:51:08;6.70;;;1.23;;
4565;SDS011;2295;51.050;14.608;2022-08-04T10:53:38;2.30;;;1.13;;
4565;SDS011;2295;51.050;14.608;2022-08-04T10:56:10;1.10;;;1.10;;
4565;SDS011;2295;51.050;14.608;2022-08-04T10:58:41;1.20;;;1.20;;
4565;SDS011;2295;51.050;14.608;2022-08-04T11:01:16;2.40;;;1.10;;
4565;SDS011;2295;51.050;14.608;2022-08-04T11:04:09;2.93;;;1.00;;
4565;SDS011;2295;51.050;14.608;2022-08-04T11:06:52;3.07;;;1.20;;
4565;SDS011;2295;51.050;14.608;2022-08-04T11:09:21;3.10;;;1.20;;
4565;SDS011;2295;51.050;14.608;2022-08-04T11:11:51;1.00;;;1.00;;
4565;SDS011;2295;51.050;14.608;2022-08-04T11:14:28;2.97;;;1.00;;
4565;SDS011;2295;51.050;14.608;2022-08-04T11:17:00;3.40;;;1.10;;
4565;SDS011;2295;51.050;14.608;2022-08-04T11:19:31;3.43;;;1.00;;
4565;SDS011;2295;51.050;14.608;2022-08-04T11:22:13;2.53;;;1.20;;
4565;SDS011;2295;51.050;14.608;2022-08-04T11:24:43;1.43;;;1.20;;
4565;SDS011;2295;51.050;14.608;2022-08-04T11:27:13;1.57;;;1.20;;
4565;SDS011;2295;51.050;14.608;2022-08-04T11:29:45;1.13;;;1.03;;
4565;SDS011;2295;51.050;14.608;2022-08-04T11:32:19;1.20;;;1.03;;
4565;SDS011;2295;51.050;14.608;2022-08-04T11:34:51;1.93;;;1.07;;
4565;SDS011;2295;51.050;14.608;2022-08-04T11:37:22;2.40;;;1.20;;
4565;SDS011;2295;51.050;14.608;2022-08-04T11:39:52;1.00;;;1.00;;
4565;SDS011;2295;51.050;14.608;2022-08-04T11:42:27;3.73;;;1.20;;
4565;SDS011;2295;51.050;14.608;2022-08-04T11:44:58;3.33;;;1.23;;
4565;SDS011;2295;51.050;14.608;2022-08-04T11:47:28;1.40;;;1.30;;
4565;SDS011;2295;51.050;14.608;2022-08-04T11:50:00;6.40;;;1.20;;
4565;SDS011;2295;51.050;14.608;2022-08-04T11:52:30;1.20;;;1.20;;
4565;SDS011;2295;51.050;14.608;2022-08-04T11:55:01;1.90;;;1.10;;
4565;SDS011;2295;51.050;14.608;2022-08-04T11:57:30;1.10;;;1.00;;
4565;SDS011;2295;51.050;14.608;2022-08-04T12:00:03;1.20;;;1.03;;
4565;SDS011;2295;51.050;14.608;2022-08-04T12:05:26;1.27;;;1.00;;
4565;SDS011;2295;51.050;14.608;2022-08-04T12:08:09;1.93;;;1.10;;
4565;SDS011;2295;51.050;14.608;2022-08-04T12:10:41;11.13;;;1.17;;
4565;SDS011;2295;51.050;14.608;2022-08-04T12:13:18;1.53;;;1.07;;
4565;SDS011;2295;51.050;14.608;2022-08-04T12:15:51;3.97;;;1.50;;
4565;SDS011;2295;51.050;14.608;2022-08-04T12:18:22;2.77;;;1.43;;
4565;SDS011;2295;51.050;14.608;2022-08-04T12:20:56;1.73;;;1.30;;
4565;SDS011;2295;51.050;14.608;2022-08-04T12:23:32;3.13;;;1.07;;
4565;SDS011;2295;51.050;14.608;2022-08-04T12:26:04;1.27;;;1.17;;
4565;SDS011;2295;51.050;14.608;2022-08-04T12:28:34;1.20;;;1.20;;
4565;SDS011;2295;51.050;14.608;2022-08-04T12:31:23;2.40;;;1.00;;
4565;SDS011;2295;51.050;14.608;2022-08-04T12:33:53;3.10;;;1.20;;
4565;SDS011;2295;51.050;14.608;2022-08-04T12:36:34;2.17;;;1.03;;
4565;SDS011;2295;51.050;14.608;2022-08-04T12:39:06;2.03;;;1.10;;
4565;SDS011;2295;51.050;14.608;2022-08-04T12:41:38;1.67;;;1.30;;
4565;SDS011;2295;51.050;14.608;2022-08-04T12:44:09;2.30;;;1.27;;
4565;SDS011;2295;51.050;14.608;2022-08-04T12:46:59;5.23;;;1.20;;
4565;SDS011;2295;51.050;14.608;2022-08-04T12:49:48;2.80;;;1.23;;
4565;SDS011;2295;51.050;14.608;2022-08-04T12:52:27;3.90;;;1.33;;
4565;SDS011;2295;51.050;14.608;2022-08-04T12:55:20;117.93;;;6.70;;
4565;SDS011;2295;51.050;14.608;2022-08-04T12:57:50;4.53;;;1.57;;
4565;SDS011;2295;51.050;14.608;2022-08-04T13:00:23;1.80;;;1.00;;
4565;SDS011;2295;51.050;14.608;2022-08-04T13:02:59;2.03;;;1.00;;
4565;SDS011;2295;51.050;14.608;2022-08-04T13:05:35;1.10;;;1.00;;
4565;SDS011;2295;51.050;14.608;2022-08-04T13:08:06;4.20;;;0.93;;
4565;SDS011;2295;51.050;14.608;2022-08-04T13:10:36;1.90;;;1.00;;
4565;SDS011;2295;51.050;14.608;2022-08-04T13:13:05;5.30;;;1.13;;
4565;SDS011;2295;51.050;14.608;2022-08-04T13:15:38;2.20;;;1.13;;
4565;SDS011;2295;51.050;14.608;2022-08-04T13:18:22;3.90;;;1.10;;
4565;SDS011;2295;51.050;14.608;2022-08-04T13:21:06;1.43;;;1.20;;
4565;SDS011;2295;51.050;14.608;2022-08-04T13:23:49;1.20;;;1.10;;
4565;SDS011;2295;51.050;14.608;2022-08-04T13:26:45;10.03;;;1.03;;
4565;SDS011;2295;51.050;14.608;2022-08-04T13:29:21;1.47;;;1.10;;
4565;SDS011;2295;51.050;14.608;2022-08-04T13:32:10;1.47;;;1.30;;
4565;SDS011;2295;51.050;14.608;2022-08-04T13:34:42;1.00;;;1.00;;
4565;SDS011;2295;51.050;14.608;2022-08-04T13:37:18;1.43;;;1.20;;
4565;SDS011;2295;51.050;14.608;2022-08-04T13:39:48;1.10;;;1.07;;
4565;SDS011;2295;51.050;14.608;2022-08-04T13:42:21;2.63;;;1.20;;
4565;SDS011;2295;51.050;14.608;2022-08-04T13:44:52;1.37;;;1.27;;
4565;SDS011;2295;51.050;14.608;2022-08-04T13:47:23;1.20;;;1.10;;
4565;SDS011;2295;51.050;14.608;2022-08-04T13:50:05;1.67;;;1.00;;
4565;SDS011;2295;51.050;14.608;2022-08-04T13:52:36;1.40;;;1.30;;
4565;SDS011;2295;51.050;14.608;2022-08-04T13:55:08;1.80;;;1.10;;
4565;SDS011;2295;51.050;14.608;2022-08-04T13:57:46;1.00;;;1.00;;
4565;SDS011;2295;51.050;14.608;2022-08-04T14:00:17;4.07;;;1.13;;
4565;SDS011;2295;51.050;14.608;2022-08-04T14:02:59;2.20;;;1.30;;
4565;SDS011;2295;51.050;14.608;2022-08-04T14:08:33;1.30;;;1.20;;
4565;SDS011;2295;51.050;14.608;2022-08-04T14:11:05;1.10;;;1.10;;
4565;SDS011;2295;51.050;14.608;2022-08-04T14:13:53;1.13;;;1.13;;
4565;SDS011;2295;51.050;14.608;2022-08-04T14:16:22;1.47;;;1.20;;
4565;SDS011;2295;51.050;14.608;2022-08-04T14:18:56;3.90;;;1.03;;
4565;SDS011;2295;51.050;14.608;2022-08-04T14:21:25;3.23;;;1.33;;
4565;SDS011;2295;51.050;14.608;2022-08-04T14:23:54;2.40;;;1.20;;
4565;SDS011;2295;51.050;14.608;2022-08-04T14:26:25;1.30;;;1.20;;
4565;SDS011;2295;51.050;14.608;2022-08-04T14:29:09;1.20;;;1.20;;
4565;SDS011;2295;51.050;14.608;2022-08-04T14:31:58;2.00;;;1.13;;
4565;SDS011;2295;51.050;14.608;2022-08-04T14:34:29;1.23;;;1.23;;
4565;SDS011;2295;51.050;14.608;2022-08-04T14:37:05;1.73;;;1.30;;
4565;SDS011;2295;51.050;14.608;2022-08-04T14:39:44;2.00;;;1.20;;
4565;SDS011;2295;51.050;14.608;2022-08-04T14:42:41;1.70;;;1.60;;
4565;SDS011;2295;51.050;14.608;2022-08-04T14:45:31;1.50;;;1.40;;
4565;SDS011;2295;51.050;14.608;2022-08-04T14:48:00;1.53;;;1.20;;
4565;SDS011;2295;51.050;14.608;2022-08-04T14:50:37;1.50;;;1.40;;
4565;SDS011;2295;51.050;14.608;2022-08-04T14:53:07;2.40;;;1.20;;
4565;SDS011;2295;51.050;14.608;2022-08-04T14:55:35;4.30;;;1.13;;
4565;SDS011;2295;51.050;14.608;2022-08-04T14:58:06;1.40;;;1.30;;
4565;SDS011;2295;51.050;14.608;2022-08-04T15:00:56;1.50;;;1.50;;
4565;SDS011;2295;51.050;14.608;2022-08-04T15:03:24;1.37;;;1.27;;
4565;SDS011;2295;51.050;14.608;2022-08-04T15:05:54;1.50;;;1.40;;
4565;SDS011;2295;51.050;14.608;2022-08-04T15:08:32;1.30;;;1.30;;
4565;SDS011;2295;51.050;14.608;2022-08-04T15:11:00;1.20;;;1.20;;
4565;SDS011;2295;51.050;14.608;2022-08-04T15:13:31;2.77;;;1.50;;
4565;SDS011;2295;51.050;14.608;2022-08-04T15:16:00;5.03;;;1.70;;
4565;SDS011;2295;51.050;14.608;2022-08-04T15:18:34;2.50;;;1.60;;
4565;SDS011;2295;51.050;14.608;2022-08-04T15:21:05;1.57;;;1.30;;
4565;SDS011;2295;51.050;14.608;2022-08-04T15:23:34;2.20;;;1.20;;
4565;SDS011;2295;51.050;14.608;2022-08-04T15:26:05;1.40;;;1.40;;
4565;SDS011;2295;51.050;14.608;2022-08-04T15:28:37;1.10;;;1.10;;
4565;SDS011;2295;51.050;14.608;2022-08-04T15:31:05;1.60;;;1.40;;
4565;SDS011;2295;51.050;14.608;2022-08-04T15:33:55;4.33;;;1.43;;
4565;SDS011;2295;51.050;14.608;2022-08-04T15:36:26;2.27;;;1.50;;
4565;SDS011;2295;51.050;14.608;2022-08-04T15:39:00;2.20;;;1.50;;
4565;SDS011;2295;51.050;14.608;2022-08-04T15:41:34;3.23;;;1.40;;
4565;SDS011;2295;51.050;14.608;2022-08-04T15:44:26;2.97;;;1.53;;
4565;SDS011;2295;51.050;14.608;2022-08-04T15:50:01;2.73;;;1.47;;
4565;SDS011;2295;51.050;14.608;2022-08-04T15:52:33;1.30;;;1.30;;
4565;SDS011;2295;51.050;14.608;2022-08-04T15:55:36;1.57;;;1.40;;
4565;SDS011;2295;51.050;14.608;2022-08-04T15:58:06;2.27;;;1.50;;
4565;SDS011;2295;51.050;14.608;2022-08-04T16:09:05;3.50;;;1.40;;
4565;SDS011;2295;51.050;14.608;2022-08-04T16:11:37;1.73;;;1.10;;
4565;SDS011;2295;51.050;14.608;2022-08-04T16:14:08;2.03;;;1.60;;
4565;SDS011;2295;51.050;14.608;2022-08-04T16:16:46;1.93;;;1.40;;
4565;SDS011;2295;51.050;14.608;2022-08-04T16:19:19;6.57;;;1.40;;
4565;SDS011;2295;51.050;14.608;2022-08-04T16:22:00;1.50;;;1.40;;
4565;SDS011;2295;51.050;14.608;2022-08-04T16:24:33;2.30;;;1.40;;
4565;SDS011;2295;51.050;14.608;2022-08-04T16:27:03;1.57;;;1.47;;
4565;SDS011;2295;51.050;14.608;2022-08-04T16:29:36;3.60;;;1.50;;
4565;SDS011;2295;51.050;14.608;2022-08-04T16:34:53;2.60;;;1.40;;
4565;SDS011;2295;51.050;14.608;2022-08-04T16:37:23;2.80;;;1.30;;
4565;SDS011;2295;51.050;14.608;2022-08-04T16:42:36;3.87;;;1.40;;
4565;SDS011;2295;51.050;14.608;2022-08-04T16:45:09;2.17;;;1.37;;
4565;SDS011;2295;51.050;14.608;2022-08-04T16:50:25;2.47;;;1.57;;
4565;SDS011;2295;51.050;14.608;2022-08-04T16:52:54;5.53;;;1.43;;
4565;SDS011;2295;51.050;14.608;2022-08-04T16:55:25;2.20;;;1.23;;
4565;SDS011;2295;51.050;14.608;2022-08-04T16:57:55;3.17;;;1.30;;
4565;SDS011;2295;51.050;14.608;2022-08-04T17:00:28;1.53;;;1.30;;
4565;SDS011;2295;51.050;14.608;2022-08-04T17:03:00;2.17;;;1.63;;
4565;SDS011;2295;51.050;14.608;2022-08-04T17:05:28;2.40;;;1.70;;